White Sands, New Mexico
Current Conditions -  °F | °C
As of 7:56 AM on Friday 19 Dec 2014 (Local Time) from KM63 Reporting Station
Moderate Fog Moderate Fog  
Wind Chill: 35°   Ceiling: 100
Heat Index: 35°   Visibility: 0.12mi
Dew Point: 35°   Wind: 2mph
Humidity: 100%   Direction: NA
Pressure: 30.19"   Gusts: NA
Location:  32.2605°N, 106.471°W
Report Text: KM63 191456Z AUTO VRB02KT 1/8SM FG VV001 02/02 A3019 RMK AO2 RAB05E08SHRAB08E19RAB19E21 SLP213 T00190019 52016
Loading
Personal Weather Stations






























Interactive Weather Map New forecast layout! Learn more

10-Day Weather Forecast

Advertisements
Track Severe Weather on mobile